Aeroporto :
LOGIN :

Iscrizione | Disclaimer

   EN    FR    IT 

 










Sommario :    VFR   VFR Marginale   IFR   IFR Intensivo   IFR Molto Intensivo
Visibilità : 
Base nubi : 
>= 8 km
>= 3000ft
5 / 8 km
1000 / 3000 ft
1500m / 5 km
500 / 1000 ft
800 / 1500m
200 / 500 ft
< 800m
< 200 ft
Simboli :   Temporali  Nebbia  Neve Forte  Precipitazioni Forti  Vento > 20 kt
SIGMETs :   Varie  Temporali  Ghiacco  Turbolenza  Onda orograficha  Ceneri Vulcaniche






- Altitudine del aeroporto : 1300 ft
- Codice IATA : LIG


LFBL - Limoges

ULTIMO METAR :
  • 160730Z AUTO 14007KT 110V170 CAVOK 09/07 Q1004 NOSIG

METARs OBSOLETI :
  • 160700Z AUTO 12008KT CAVOK 09/06 Q1004 NOSIG
  • 160630Z AUTO 13008KT CAVOK 09/07 Q1004 NOSIG
  • 160600Z AUTO 12006KT CAVOK 09/06 Q1004 NOSIG
  • 160530Z AUTO 12007KT CAVOK 09/06 Q1005 NOSIG
  • 160500Z AUTO 12007KT CAVOK 09/07 Q1005 NOSIG

TAF TAF LFBL
Valido dal 16 a 06 ore il 17 a 06 ore UTC


160500Z 1606/1706 13006KT CAVOK
BECMG 1612/1614 16018G30KT
TEMPO 1618/1702 BKN012
PROB40
TEMPO 1700/1706 15025G40KT
ATIS : +33 5 55 48 40 37



MetMap, La meteo Aeronautica in un colpo d'occhio ! - Copyright ORBIFLY Dicembre 2007 - Disclaimer

ORBIFLY MET'MAP TEAM :

Programmazione e sviluppo : Alexandra Zaïnal
Concezione : Baudouin d'Aumeries
Aiuto per la programmazione : Marc-Olivier Méhu
Supporto tecnico e logistico : Manuel Goepfert
Aiuto per la traduzione : Arnaldo La Scala

Contatto : metmap@orbifly.com




FONTI E CREDITI :

   NOAA